This is the latest recevied weather packets stored in our database for station/object CE4JVU-10. If no packets are shown the sender has not sent any weather packets the latest 10 day(s).
| Time | Temp. | Humidity | Pressure | Rain* | Wind** | Luminosity | Snow |
|---|---|---|---|---|---|---|---|
| 1788411268 | 20.56° C | 53% | 986.1 hPa | - | - | - | - |
| 1788410368 | 20.56° C | 54% | 986 hPa | - | - | - | - |
| 1788409468 | 20.56° C | 53% | 986 hPa | - | - | - | - |
| 1788408568 | 20.56° C | 53% | 985.9 hPa | - | - | - | - |
| 1788407668 | 20.56° C | 53% | 986.1 hPa | - | - | - | - |
| 1788406767 | 20.56° C | 53% | 986.1 hPa | - | - | - | - |
| 1788405867 | 20.56° C | 54% | 986 hPa | - | - | - | - |
| 1788404967 | 20.56° C | 53% | 986.1 hPa | - | - | - | - |
| 1788404067 | 20.56° C | 54% | 986.1 hPa | - | - | - | - |
| 1788403167 | 20.56° C | 52% | 985.9 hPa | - | - | - | - |
| 1788402267 | 20.56° C | 53% | 985.8 hPa | - | - | - | - |
| 1788401371 | 20° C | 54% | 985.7 hPa | - | - | - | - |
| 1788380668 | 23.33° C | 41% | 982.7 hPa | - | - | - | - |
| 1788377969 | 23.89° C | 40% | 982.8 hPa | - | - | - | - |
| 1788377069 | 24.44° C | 41% | 982.7 hPa | - | - | - | - |
| 1788376169 | 24.44° C | 42% | 982.6 hPa | - | - | - | - |
| 1788375269 | 23.89° C | 43% | 982.5 hPa | - | - | - | - |
| 1788374369 | 23.33° C | 44% | 982.4 hPa | - | - | - | - |
| 1788373468 | 22.78° C | 46% | 982.6 hPa | - | - | - | - |
| 1788372568 | 22.22° C | 46% | 982.8 hPa | - | - | - | - |
| 1788371668 | 22.22° C | 49% | 983 hPa | - | - | - | - |
| 1788370768 | 22.22° C | 49% | 983.1 hPa | - | - | - | - |
| 1788369868 | 21.11° C | 49% | 983.2 hPa | - | - | - | - |
| 1788368968 | 21.11° C | 47% | 983.4 hPa | - | - | - | - |
| 1788368069 | 20.56° C | 48% | 983.4 hPa | - | - | - | - |
* Rain since midnight (hover to see other rain measurements)
** Current wind speed in m/s (hover to see current wind gust speed)